sensor_id;sensor_type;location;lat;lon;timestamp;temperature;humidity
69901;DHT22;57183;50.930;5.406;2023-03-31T00:00:06;12.00;99.90
69901;DHT22;57183;50.930;5.406;2023-03-31T00:02:37;12.00;99.90
69901;DHT22;57183;50.930;5.406;2023-03-31T00:05:07;12.00;99.90
69901;DHT22;57183;50.930;5.406;2023-03-31T00:07:32;12.10;99.90
69901;DHT22;57183;50.930;5.406;2023-03-31T00:10:03;12.10;99.90
69901;DHT22;57183;50.930;5.406;2023-03-31T00:12:29;12.10;99.90
69901;DHT22;57183;50.930;5.406;2023-03-31T00:14:54;12.10;99.90
69901;DHT22;57183;50.930;5.406;2023-03-31T00:17:20;12.20;99.90
69901;DHT22;57183;50.930;5.406;2023-03-31T00:19:46;12.30;99.90
69901;DHT22;57183;50.930;5.406;2023-03-31T00:22:15;12.30;99.90
69901;DHT22;57183;50.930;5.406;2023-03-31T00:24:47;12.30;99.90
69901;DHT22;57183;50.930;5.406;2023-03-31T00:27:13;12.40;99.90
69901;DHT22;57183;50.930;5.406;2023-03-31T00:29:38;12.30;99.90
69901;DHT22;57183;50.930;5.406;2023-03-31T00:32:07;12.40;99.90
69901;DHT22;57183;50.930;5.406;2023-03-31T00:34:33;12.50;99.90
69901;DHT22;57183;50.930;5.406;2023-03-31T00:36:59;12.50;99.90
69901;DHT22;57183;50.930;5.406;2023-03-31T00:39:28;12.50;99.90
69901;DHT22;57183;50.930;5.406;2023-03-31T00:41:57;12.50;99.90
69901;DHT22;57183;50.930;5.406;2023-03-31T00:44:23;12.50;99.90
69901;DHT22;57183;50.930;5.406;2023-03-31T00:49:32;12.30;99.90
69901;DHT22;57183;50.930;5.406;2023-03-31T00:52:20;12.30;99.90
69901;DHT22;57183;50.930;5.406;2023-03-31T00:54:56;12.30;99.90
69901;DHT22;57183;50.930;5.406;2023-03-31T00:57:23;12.30;99.90
69901;DHT22;57183;50.930;5.406;2023-03-31T00:59:54;12.30;99.90
69901;DHT22;57183;50.930;5.406;2023-03-31T01:02:22;12.30;99.90
69901;DHT22;57183;50.930;5.406;2023-03-31T01:04:55;12.30;99.90
69901;DHT22;57183;50.930;5.406;2023-03-31T01:07:40;12.30;99.90
69901;DHT22;57183;50.930;5.406;2023-03-31T01:10:07;12.20;99.90
69901;DHT22;57183;50.930;5.406;2023-03-31T01:12:37;12.20;99.90
69901;DHT22;57183;50.930;5.406;2023-03-31T01:15:04;12.20;99.90
69901;DHT22;57183;50.930;5.406;2023-03-31T01:17:30;12.10;99.90
69901;DHT22;57183;50.930;5.406;2023-03-31T01:20:18;12.20;99.90
69901;DHT22;57183;50.930;5.406;2023-03-31T01:22:54;12.10;99.90
69901;DHT22;57183;50.930;5.406;2023-03-31T01:28:22;12.00;99.90
69901;DHT22;57183;50.930;5.406;2023-03-31T01:48:06;11.70;99.90
69901;DHT22;57183;50.930;5.406;2023-03-31T01:51:11;11.60;99.90
69901;DHT22;57183;50.930;5.406;2023-03-31T01:53:34;11.70;99.90
69901;DHT22;57183;50.930;5.406;2023-03-31T01:58:43;11.80;99.90
69901;DHT22;57183;50.930;5.406;2023-03-31T02:01:36;11.70;99.90
69901;DHT22;57183;50.930;5.406;2023-03-31T02:04:27;11.80;99.90
69901;DHT22;57183;50.930;5.406;2023-03-31T02:07:06;11.70;99.90
69901;DHT22;57183;50.930;5.406;2023-03-31T02:09:37;11.70;99.90
69901;DHT22;57183;50.930;5.406;2023-03-31T02:12:07;11.80;99.90
69901;DHT22;57183;50.930;5.406;2023-03-31T02:14:34;11.70;99.90
69901;DHT22;57183;50.930;5.406;2023-03-31T02:17:01;11.80;99.90
69901;DHT22;57183;50.930;5.406;2023-03-31T02:19:35;11.70;99.90
69901;DHT22;57183;50.930;5.406;2023-03-31T02:22:05;11.80;99.90
69901;DHT22;57183;50.930;5.406;2023-03-31T02:24:32;11.80;99.90
69901;DHT22;57183;50.930;5.406;2023-03-31T02:27:14;11.80;99.90
69901;DHT22;57183;50.930;5.406;2023-03-31T02:29:42;11.80;99.90
69901;DHT22;57183;50.930;5.406;2023-03-31T02:34:39;11.70;99.90
69901;DHT22;57183;50.930;5.406;2023-03-31T02:37:05;11.70;99.90
69901;DHT22;57183;50.930;5.406;2023-03-31T02:39:34;11.80;99.90
69901;DHT22;57183;50.930;5.406;2023-03-31T02:42:02;11.80;99.90
69901;DHT22;57183;50.930;5.406;2023-03-31T02:44:35;11.80;99.90
69901;DHT22;57183;50.930;5.406;2023-03-31T02:47:04;11.70;99.90
69901;DHT22;57183;50.930;5.406;2023-03-31T02:49:30;11.70;99.90
69901;DHT22;57183;50.930;5.406;2023-03-31T02:55:24;11.70;99.90
69901;DHT22;57183;50.930;5.406;2023-03-31T02:58:16;11.60;99.90
69901;DHT22;57183;50.930;5.406;2023-03-31T03:01:10;11.70;99.90
69901;DHT22;57183;50.930;5.406;2023-03-31T03:09:58;11.70;99.90
69901;DHT22;57183;50.930;5.406;2023-03-31T03:15:05;11.70;99.90
69901;DHT22;57183;50.930;5.406;2023-03-31T03:17:52;11.70;99.90
69901;DHT22;57183;50.930;5.406;2023-03-31T03:20:19;11.70;99.90
69901;DHT22;57183;50.930;5.406;2023-03-31T03:22:45;11.70;99.90
69901;DHT22;57183;50.930;5.406;2023-03-31T03:25:13;11.70;99.90
69901;DHT22;57183;50.930;5.406;2023-03-31T03:27:39;11.60;99.90
69901;DHT22;57183;50.930;5.406;2023-03-31T03:30:07;11.70;99.90
69901;DHT22;57183;50.930;5.406;2023-03-31T03:32:33;11.60;99.90
69901;DHT22;57183;50.930;5.406;2023-03-31T03:35:03;11.60;99.90
69901;DHT22;57183;50.930;5.406;2023-03-31T03:37:30;11.60;99.90
69901;DHT22;57183;50.930;5.406;2023-03-31T03:39:56;11.60;99.90
69901;DHT22;57183;50.930;5.406;2023-03-31T03:42:21;11.60;99.90
69901;DHT22;57183;50.930;5.406;2023-03-31T03:44:47;11.60;99.90
69901;DHT22;57183;50.930;5.406;2023-03-31T03:47:13;11.70;99.90
69901;DHT22;57183;50.930;5.406;2023-03-31T03:49:39;11.70;99.90
69901;DHT22;57183;50.930;5.406;2023-03-31T03:52:05;11.80;99.90
69901;DHT22;57183;50.930;5.406;2023-03-31T03:54:30;11.80;99.90
69901;DHT22;57183;50.930;5.406;2023-03-31T03:56:56;11.80;99.90
69901;DHT22;57183;50.930;5.406;2023-03-31T03:59:22;11.70;99.90
69901;DHT22;57183;50.930;5.406;2023-03-31T04:01:48;11.80;99.90
69901;DHT22;57183;50.930;5.406;2023-03-31T04:04:14;11.70;99.90
69901;DHT22;57183;50.930;5.406;2023-03-31T04:06:40;11.80;99.90
69901;DHT22;57183;50.930;5.406;2023-03-31T04:09:07;11.90;99.90
69901;DHT22;57183;50.930;5.406;2023-03-31T04:11:33;11.90;99.90
69901;DHT22;57183;50.930;5.406;2023-03-31T04:14:02;11.90;99.90
69901;DHT22;57183;50.930;5.406;2023-03-31T04:16:28;11.80;99.90
69901;DHT22;57183;50.930;5.406;2023-03-31T04:18:54;11.90;99.90
69901;DHT22;57183;50.930;5.406;2023-03-31T04:21:23;11.90;99.90
69901;DHT22;57183;50.930;5.406;2023-03-31T04:23:53;11.90;99.90
69901;DHT22;57183;50.930;5.406;2023-03-31T04:26:31;11.80;99.90
69901;DHT22;57183;50.930;5.406;2023-03-31T04:29:08;11.70;99.90
69901;DHT22;57183;50.930;5.406;2023-03-31T04:31:34;11.80;99.90
69901;DHT22;57183;50.930;5.406;2023-03-31T04:34:03;11.70;99.90
69901;DHT22;57183;50.930;5.406;2023-03-31T04:36:31;11.80;99.90
69901;DHT22;57183;50.930;5.406;2023-03-31T04:38:58;11.60;99.90
69901;DHT22;57183;50.930;5.406;2023-03-31T04:41:25;11.70;99.90
69901;DHT22;57183;50.930;5.406;2023-03-31T04:43:52;11.70;99.90
69901;DHT22;57183;50.930;5.406;2023-03-31T04:46:18;11.60;99.90
69901;DHT22;57183;50.930;5.406;2023-03-31T04:48:44;11.60;99.90
69901;DHT22;57183;50.930;5.406;2023-03-31T04:51:10;11.50;99.90
69901;DHT22;57183;50.930;5.406;2023-03-31T04:53:36;11.60;99.90
69901;DHT22;57183;50.930;5.406;2023-03-31T04:56:02;11.60;99.90
69901;DHT22;57183;50.930;5.406;2023-03-31T04:58:28;11.60;99.90
69901;DHT22;57183;50.930;5.406;2023-03-31T05:00:54;11.60;99.90
69901;DHT22;57183;50.930;5.406;2023-03-31T05:03:19;11.50;99.90
69901;DHT22;57183;50.930;5.406;2023-03-31T05:05:46;11.50;99.90
69901;DHT22;57183;50.930;5.406;2023-03-31T05:08:11;11.50;99.90
69901;DHT22;57183;50.930;5.406;2023-03-31T05:10:37;11.50;99.90
69901;DHT22;57183;50.930;5.406;2023-03-31T05:13:03;11.50;99.90
69901;DHT22;57183;50.930;5.406;2023-03-31T05:15:37;11.50;99.90
69901;DHT22;57183;50.930;5.406;2023-03-31T05:18:03;11.50;99.90
69901;DHT22;57183;50.930;5.406;2023-03-31T05:20:29;11.50;99.90
69901;DHT22;57183;50.930;5.406;2023-03-31T05:22:55;11.50;99.90
69901;DHT22;57183;50.930;5.406;2023-03-31T05:25:21;11.50;99.90
69901;DHT22;57183;50.930;5.406;2023-03-31T05:27:47;11.40;99.90
69901;DHT22;57183;50.930;5.406;2023-03-31T05:30:14;11.40;99.90
69901;DHT22;57183;50.930;5.406;2023-03-31T05:32:40;11.40;99.90
69901;DHT22;57183;50.930;5.406;2023-03-31T05:35:06;11.40;99.90
69901;DHT22;57183;50.930;5.406;2023-03-31T05:37:32;11.40;99.90
69901;DHT22;57183;50.930;5.406;2023-03-31T05:39:58;11.40;99.90
69901;DHT22;57183;50.930;5.406;2023-03-31T05:42:24;11.40;99.90
69901;DHT22;57183;50.930;5.406;2023-03-31T05:44:50;11.50;99.90
69901;DHT22;57183;50.930;5.406;2023-03-31T05:47:16;11.50;99.90
69901;DHT22;57183;50.930;5.406;2023-03-31T05:49:42;11.50;99.90
69901;DHT22;57183;50.930;5.406;2023-03-31T05:52:08;11.50;99.90
69901;DHT22;57183;50.930;5.406;2023-03-31T05:54:34;11.50;99.90
69901;DHT22;57183;50.930;5.406;2023-03-31T05:57:00;11.50;99.90
69901;DHT22;57183;50.930;5.406;2023-03-31T05:59:26;11.50;99.90
69901;DHT22;57183;50.930;5.406;2023-03-31T06:01:51;11.50;99.90
69901;DHT22;57183;50.930;5.406;2023-03-31T06:04:18;11.50;99.90
69901;DHT22;57183;50.930;5.406;2023-03-31T06:06:43;11.50;99.90
69901;DHT22;57183;50.930;5.406;2023-03-31T06:09:10;11.40;99.90
69901;DHT22;57183;50.930;5.406;2023-03-31T06:11:37;11.50;99.90
69901;DHT22;57183;50.930;5.406;2023-03-31T06:14:03;11.50;99.90
69901;DHT22;57183;50.930;5.406;2023-03-31T06:16:30;11.40;99.90
69901;DHT22;57183;50.930;5.406;2023-03-31T06:18:56;11.50;99.90
69901;DHT22;57183;50.930;5.406;2023-03-31T06:21:22;11.50;99.90
69901;DHT22;57183;50.930;5.406;2023-03-31T06:23:48;11.60;99.90
69901;DHT22;57183;50.930;5.406;2023-03-31T06:26:16;11.60;99.90
69901;DHT22;57183;50.930;5.406;2023-03-31T06:28:43;11.70;99.90
69901;DHT22;57183;50.930;5.406;2023-03-31T06:31:14;11.70;99.90
69901;DHT22;57183;50.930;5.406;2023-03-31T06:33:41;11.70;99.90
69901;DHT22;57183;50.930;5.406;2023-03-31T06:36:08;11.70;99.90
69901;DHT22;57183;50.930;5.406;2023-03-31T06:38:35;11.80;99.90
69901;DHT22;57183;50.930;5.406;2023-03-31T06:41:03;11.90;99.90
69901;DHT22;57183;50.930;5.406;2023-03-31T06:43:30;12.00;99.90
69901;DHT22;57183;50.930;5.406;2023-03-31T06:45:55;12.10;99.90
69901;DHT22;57183;50.930;5.406;2023-03-31T06:48:22;12.10;99.90
69901;DHT22;57183;50.930;5.406;2023-03-31T06:50:48;12.20;99.90
69901;DHT22;57183;50.930;5.406;2023-03-31T06:53:14;12.30;99.90
69901;DHT22;57183;50.930;5.406;2023-03-31T06:55:40;12.30;99.90
69901;DHT22;57183;50.930;5.406;2023-03-31T06:58:06;12.40;99.90
69901;DHT22;57183;50.930;5.406;2023-03-31T07:00:33;12.40;99.90
69901;DHT22;57183;50.930;5.406;2023-03-31T07:02:58;12.50;99.90
69901;DHT22;57183;50.930;5.406;2023-03-31T07:05:25;12.40;99.90
69901;DHT22;57183;50.930;5.406;2023-03-31T07:07:53;12.40;99.90
69901;DHT22;57183;50.930;5.406;2023-03-31T07:10:19;12.30;99.90
69901;DHT22;57183;50.930;5.406;2023-03-31T07:12:45;12.30;99.90
69901;DHT22;57183;50.930;5.406;2023-03-31T07:15:10;12.40;99.90
69901;DHT22;57183;50.930;5.406;2023-03-31T07:17:36;12.40;99.90
69901;DHT22;57183;50.930;5.406;2023-03-31T07:20:07;12.50;99.90
69901;DHT22;57183;50.930;5.406;2023-03-31T07:22:43;12.60;99.90
69901;DHT22;57183;50.930;5.406;2023-03-31T07:25:10;12.70;99.90
69901;DHT22;57183;50.930;5.406;2023-03-31T07:27:36;12.80;99.90
69901;DHT22;57183;50.930;5.406;2023-03-31T07:30:07;12.90;99.90
69901;DHT22;57183;50.930;5.406;2023-03-31T07:32:33;13.10;99.90
69901;DHT22;57183;50.930;5.406;2023-03-31T07:35:05;13.20;99.90
69901;DHT22;57183;50.930;5.406;2023-03-31T07:37:37;13.20;99.90
69901;DHT22;57183;50.930;5.406;2023-03-31T07:40:04;13.20;99.90
69901;DHT22;57183;50.930;5.406;2023-03-31T07:42:31;13.10;99.90
69901;DHT22;57183;50.930;5.406;2023-03-31T07:44:57;13.10;99.90
69901;DHT22;57183;50.930;5.406;2023-03-31T07:47:23;13.10;99.90
69901;DHT22;57183;50.930;5.406;2023-03-31T07:49:49;13.10;99.90
69901;DHT22;57183;50.930;5.406;2023-03-31T07:52:15;13.20;99.90
69901;DHT22;57183;50.930;5.406;2023-03-31T07:54:43;13.20;99.90
69901;DHT22;57183;50.930;5.406;2023-03-31T07:57:08;13.20;99.90
69901;DHT22;57183;50.930;5.406;2023-03-31T07:59:34;13.30;99.90
69901;DHT22;57183;50.930;5.406;2023-03-31T08:02:00;13.40;99.90
69901;DHT22;57183;50.930;5.406;2023-03-31T08:04:26;13.50;99.90
69901;DHT22;57183;50.930;5.406;2023-03-31T08:06:51;13.50;99.90
69901;DHT22;57183;50.930;5.406;2023-03-31T08:09:17;13.40;99.90
69901;DHT22;57183;50.930;5.406;2023-03-31T08:11:44;13.40;99.90
69901;DHT22;57183;50.930;5.406;2023-03-31T08:14:10;13.40;99.90
69901;DHT22;57183;50.930;5.406;2023-03-31T08:16:35;13.50;99.90
69901;DHT22;57183;50.930;5.406;2023-03-31T08:19:01;13.60;99.90
69901;DHT22;57183;50.930;5.406;2023-03-31T08:21:28;13.60;99.90
69901;DHT22;57183;50.930;5.406;2023-03-31T08:23:54;13.60;99.90
69901;DHT22;57183;50.930;5.406;2023-03-31T08:26:20;13.60;99.90
69901;DHT22;57183;50.930;5.406;2023-03-31T08:28:49;13.50;99.90
69901;DHT22;57183;50.930;5.406;2023-03-31T08:31:15;13.50;99.90
69901;DHT22;57183;50.930;5.406;2023-03-31T08:33:41;13.40;99.90
69901;DHT22;57183;50.930;5.406;2023-03-31T08:36:08;13.40;99.90
69901;DHT22;57183;50.930;5.406;2023-03-31T08:38:39;13.50;99.90
69901;DHT22;57183;50.930;5.406;2023-03-31T08:43:46;13.50;99.90
69901;DHT22;57183;50.930;5.406;2023-03-31T08:46:14;13.50;99.90
69901;DHT22;57183;50.930;5.406;2023-03-31T08:48:49;13.50;99.90
69901;DHT22;57183;50.930;5.406;2023-03-31T08:51:21;13.60;99.90
69901;DHT22;57183;50.930;5.406;2023-03-31T08:53:50;13.70;99.90
69901;DHT22;57183;50.930;5.406;2023-03-31T08:56:21;13.70;99.90
69901;DHT22;57183;50.930;5.406;2023-03-31T08:58:50;13.80;99.90
69901;DHT22;57183;50.930;5.406;2023-03-31T09:06:42;14.00;99.90
69901;DHT22;57183;50.930;5.406;2023-03-31T09:10:05;14.00;99.90
69901;DHT22;57183;50.930;5.406;2023-03-31T09:12:30;13.80;99.90
69901;DHT22;57183;50.930;5.406;2023-03-31T09:17:48;13.80;99.90
69901;DHT22;57183;50.930;5.406;2023-03-31T09:20:19;13.40;99.90
69901;DHT22;57183;50.930;5.406;2023-03-31T09:22:49;13.00;99.90
69901;DHT22;57183;50.930;5.406;2023-03-31T09:25:24;12.60;99.90
69901;DHT22;57183;50.930;5.406;2023-03-31T09:27:51;12.50;99.90
69901;DHT22;57183;50.930;5.406;2023-03-31T09:30:27;12.50;99.90
69901;DHT22;57183;50.930;5.406;2023-03-31T09:33:12;12.40;99.90
69901;DHT22;57183;50.930;5.406;2023-03-31T09:35:39;12.30;99.90
69901;DHT22;57183;50.930;5.406;2023-03-31T09:38:04;12.30;99.90
69901;DHT22;57183;50.930;5.406;2023-03-31T09:40:30;12.40;99.90
69901;DHT22;57183;50.930;5.406;2023-03-31T09:43:00;12.50;99.90
69901;DHT22;57183;50.930;5.406;2023-03-31T09:45:26;12.60;99.90
69901;DHT22;57183;50.930;5.406;2023-03-31T09:48:20;12.60;99.90
69901;DHT22;57183;50.930;5.406;2023-03-31T09:50:58;12.60;99.90
69901;DHT22;57183;50.930;5.406;2023-03-31T09:56:00;12.70;99.90
69901;DHT22;57183;50.930;5.406;2023-03-31T09:58:26;12.90;99.90
69901;DHT22;57183;50.930;5.406;2023-03-31T10:01:01;13.00;99.90
69901;DHT22;57183;50.930;5.406;2023-03-31T10:03:28;13.00;99.90
69901;DHT22;57183;50.930;5.406;2023-03-31T10:06:01;13.10;99.90
69901;DHT22;57183;50.930;5.406;2023-03-31T10:08:42;13.10;99.90
69901;DHT22;57183;50.930;5.406;2023-03-31T10:11:10;13.10;99.90
69901;DHT22;57183;50.930;5.406;2023-03-31T10:16:06;13.20;99.90
69901;DHT22;57183;50.930;5.406;2023-03-31T10:18:39;13.20;99.90
69901;DHT22;57183;50.930;5.406;2023-03-31T10:21:13;13.30;99.90
69901;DHT22;57183;50.930;5.406;2023-03-31T10:23:45;13.40;99.90
69901;DHT22;57183;50.930;5.406;2023-03-31T10:26:15;13.50;99.90
69901;DHT22;57183;50.930;5.406;2023-03-31T10:28:41;13.70;99.90
69901;DHT22;57183;50.930;5.406;2023-03-31T10:31:07;13.70;99.90
69901;DHT22;57183;50.930;5.406;2023-03-31T10:33:36;14.00;99.90
69901;DHT22;57183;50.930;5.406;2023-03-31T10:36:20;14.10;99.90
69901;DHT22;57183;50.930;5.406;2023-03-31T10:38:46;14.20;99.90
69901;DHT22;57183;50.930;5.406;2023-03-31T10:41:23;14.30;99.90
69901;DHT22;57183;50.930;5.406;2023-03-31T10:43:55;14.40;99.90
69901;DHT22;57183;50.930;5.406;2023-03-31T10:46:40;14.30;99.90
69901;DHT22;57183;50.930;5.406;2023-03-31T10:49:26;14.00;99.90
69901;DHT22;57183;50.930;5.406;2023-03-31T10:51:57;13.70;99.90
69901;DHT22;57183;50.930;5.406;2023-03-31T10:54:24;13.30;99.90
69901;DHT22;57183;50.930;5.406;2023-03-31T10:57:00;12.90;99.90
69901;DHT22;57183;50.930;5.406;2023-03-31T11:05:51;13.00;99.90
69901;DHT22;57183;50.930;5.406;2023-03-31T11:13:37;13.60;99.90
69901;DHT22;57183;50.930;5.406;2023-03-31T11:21:44;14.00;99.90
69901;DHT22;57183;50.930;5.406;2023-03-31T11:33:20;14.40;99.90
69901;DHT22;57183;50.930;5.406;2023-03-31T11:41:27;14.50;99.90
69901;DHT22;57183;50.930;5.406;2023-03-31T11:43:57;14.60;99.90
69901;DHT22;57183;50.930;5.406;2023-03-31T11:46:47;14.70;99.90
69901;DHT22;57183;50.930;5.406;2023-03-31T11:49:38;14.70;99.90
69901;DHT22;57183;50.930;5.406;2023-03-31T11:52:13;14.80;99.90
69901;DHT22;57183;50.930;5.406;2023-03-31T11:55:34;15.10;99.90
69901;DHT22;57183;50.930;5.406;2023-03-31T11:57:58;15.00;99.90
69901;DHT22;57183;50.930;5.406;2023-03-31T12:00:29;14.90;99.90
69901;DHT22;57183;50.930;5.406;2023-03-31T12:03:08;14.90;99.90
69901;DHT22;57183;50.930;5.406;2023-03-31T12:05:42;14.80;99.90
69901;DHT22;57183;50.930;5.406;2023-03-31T12:08:15;14.80;99.90
69901;DHT22;57183;50.930;5.406;2023-03-31T12:10:50;15.00;99.90
69901;DHT22;57183;50.930;5.406;2023-03-31T12:16:17;15.10;99.90
69901;DHT22;57183;50.930;5.406;2023-03-31T12:18:57;15.00;99.90
69901;DHT22;57183;50.930;5.406;2023-03-31T12:21:28;14.80;99.90
69901;DHT22;57183;50.930;5.406;2023-03-31T12:23:54;14.70;99.90
69901;DHT22;57183;50.930;5.406;2023-03-31T12:26:33;14.80;99.90
69901;DHT22;57183;50.930;5.406;2023-03-31T12:31:54;14.70;99.90
69901;DHT22;57183;50.930;5.406;2023-03-31T12:34:22;14.70;99.90
69901;DHT22;57183;50.930;5.406;2023-03-31T12:36:56;14.70;99.90
69901;DHT22;57183;50.930;5.406;2023-03-31T12:55:20;14.90;99.90
69901;DHT22;57183;50.930;5.406;2023-03-31T12:57:49;15.10;99.90
69901;DHT22;57183;50.930;5.406;2023-03-31T13:00:23;15.10;99.90
69901;DHT22;57183;50.930;5.406;2023-03-31T13:02:49;15.10;99.90
69901;DHT22;57183;50.930;5.406;2023-03-31T13:08:08;14.60;99.90
69901;DHT22;57183;50.930;5.406;2023-03-31T13:10:56;14.20;99.90
69901;DHT22;57183;50.930;5.406;2023-03-31T13:13:23;13.90;99.90
69901;DHT22;57183;50.930;5.406;2023-03-31T13:15:57;13.30;99.90
69901;DHT22;57183;50.930;5.406;2023-03-31T13:18:24;13.10;99.90
69901;DHT22;57183;50.930;5.406;2023-03-31T13:21:01;12.70;99.90
69901;DHT22;57183;50.930;5.406;2023-03-31T13:23:32;12.50;99.90
69901;DHT22;57183;50.930;5.406;2023-03-31T13:25:59;12.30;99.90
69901;DHT22;57183;50.930;5.406;2023-03-31T13:33:27;12.10;99.90
69901;DHT22;57183;50.930;5.406;2023-03-31T13:50:34;12.10;99.90
69901;DHT22;57183;50.930;5.406;2023-03-31T13:53:18;12.20;99.90
69901;DHT22;57183;50.930;5.406;2023-03-31T13:56:07;12.30;99.90
69901;DHT22;57183;50.930;5.406;2023-03-31T13:59:00;12.50;99.90
69901;DHT22;57183;50.930;5.406;2023-03-31T14:04:37;12.30;99.90
69901;DHT22;57183;50.930;5.406;2023-03-31T14:07:14;12.20;99.90
69901;DHT22;57183;50.930;5.406;2023-03-31T14:09:44;12.20;99.90
69901;DHT22;57183;50.930;5.406;2023-03-31T14:12:36;12.20;99.90
69901;DHT22;57183;50.930;5.406;2023-03-31T14:15:03;12.40;99.90
69901;DHT22;57183;50.930;5.406;2023-03-31T14:17:36;12.50;99.90
69901;DHT22;57183;50.930;5.406;2023-03-31T14:26:01;13.10;99.90
69901;DHT22;57183;50.930;5.406;2023-03-31T14:28:51;13.20;99.90
69901;DHT22;57183;50.930;5.406;2023-03-31T14:31:39;13.00;99.90
69901;DHT22;57183;50.930;5.406;2023-03-31T14:37:14;12.90;99.90
69901;DHT22;57183;50.930;5.406;2023-03-31T14:39:50;13.00;99.90
69901;DHT22;57183;50.930;5.406;2023-03-31T14:42:21;13.10;99.90
69901;DHT22;57183;50.930;5.406;2023-03-31T14:45:00;13.20;99.90
69901;DHT22;57183;50.930;5.406;2023-03-31T14:47:27;13.20;99.90
69901;DHT22;57183;50.930;5.406;2023-03-31T14:52:29;13.10;99.90
69901;DHT22;57183;50.930;5.406;2023-03-31T14:54:57;12.90;99.90
69901;DHT22;57183;50.930;5.406;2023-03-31T14:57:35;12.80;99.90
69901;DHT22;57183;50.930;5.406;2023-03-31T15:00:04;12.80;99.90
69901;DHT22;57183;50.930;5.406;2023-03-31T15:02:36;12.80;99.90
69901;DHT22;57183;50.930;5.406;2023-03-31T15:05:08;12.80;99.90
69901;DHT22;57183;50.930;5.406;2023-03-31T15:07:35;12.90;99.90
69901;DHT22;57183;50.930;5.406;2023-03-31T15:10:02;12.80;99.90
69901;DHT22;57183;50.930;5.406;2023-03-31T15:12:29;12.80;99.90
69901;DHT22;57183;50.930;5.406;2023-03-31T15:15:05;12.80;99.90
69901;DHT22;57183;50.930;5.406;2023-03-31T15:17:38;12.80;99.90
69901;DHT22;57183;50.930;5.406;2023-03-31T15:20:38;12.80;99.90
69901;DHT22;57183;50.930;5.406;2023-03-31T15:23:24;12.70;99.90
69901;DHT22;57183;50.930;5.406;2023-03-31T15:25:58;12.70;99.90
69901;DHT22;57183;50.930;5.406;2023-03-31T15:28:30;12.70;99.90
69901;DHT22;57183;50.930;5.406;2023-03-31T15:30:59;12.80;99.90
69901;DHT22;57183;50.930;5.406;2023-03-31T15:33:32;12.70;99.90
69901;DHT22;57183;50.930;5.406;2023-03-31T15:36:01;12.70;99.90
69901;DHT22;57183;50.930;5.406;2023-03-31T15:38:28;12.70;99.90
69901;DHT22;57183;50.930;5.406;2023-03-31T15:40:57;12.70;99.90
69901;DHT22;57183;50.930;5.406;2023-03-31T15:43:32;12.50;99.90
69901;DHT22;57183;50.930;5.406;2023-03-31T15:46:10;12.40;99.90
69901;DHT22;57183;50.930;5.406;2023-03-31T15:48:51;12.40;99.90
69901;DHT22;57183;50.930;5.406;2023-03-31T15:51:27;12.20;99.90
69901;DHT22;57183;50.930;5.406;2023-03-31T15:53:54;12.10;99.90
69901;DHT22;57183;50.930;5.406;2023-03-31T15:59:00;12.10;99.90
69901;DHT22;57183;50.930;5.406;2023-03-31T16:01:33;12.10;99.90
69901;DHT22;57183;50.930;5.406;2023-03-31T16:04:01;12.20;99.90
69901;DHT22;57183;50.930;5.406;2023-03-31T16:06:53;12.30;99.90
69901;DHT22;57183;50.930;5.406;2023-03-31T16:11:52;12.30;99.90
69901;DHT22;57183;50.930;5.406;2023-03-31T16:16:51;12.10;99.90
69901;DHT22;57183;50.930;5.406;2023-03-31T16:19:20;12.00;99.90
69901;DHT22;57183;50.930;5.406;2023-03-31T16:21:48;12.00;99.90
69901;DHT22;57183;50.930;5.406;2023-03-31T16:24:20;12.00;99.90
69901;DHT22;57183;50.930;5.406;2023-03-31T16:27:03;12.10;99.90
69901;DHT22;57183;50.930;5.406;2023-03-31T16:29:35;12.10;99.90
69901;DHT22;57183;50.930;5.406;2023-03-31T16:32:18;12.10;99.90
69901;DHT22;57183;50.930;5.406;2023-03-31T16:34:56;12.10;99.90
69901;DHT22;57183;50.930;5.406;2023-03-31T16:37:22;12.10;99.90
69901;DHT22;57183;50.930;5.406;2023-03-31T16:39:49;12.10;99.90
69901;DHT22;57183;50.930;5.406;2023-03-31T16:42:14;12.10;99.90
69901;DHT22;57183;50.930;5.406;2023-03-31T16:44:40;12.00;99.90
69901;DHT22;57183;50.930;5.406;2023-03-31T16:47:06;12.00;99.90
69901;DHT22;57183;50.930;5.406;2023-03-31T16:49:31;12.00;99.90
69901;DHT22;57183;50.930;5.406;2023-03-31T16:51:57;12.00;99.90
69901;DHT22;57183;50.930;5.406;2023-03-31T16:54:23;12.10;99.90
69901;DHT22;57183;50.930;5.406;2023-03-31T16:56:49;12.00;99.90
69901;DHT22;57183;50.930;5.406;2023-03-31T16:59:15;12.00;99.90
69901;DHT22;57183;50.930;5.406;2023-03-31T17:01:41;12.00;99.90
69901;DHT22;57183;50.930;5.406;2023-03-31T17:04:06;12.00;99.90
69901;DHT22;57183;50.930;5.406;2023-03-31T17:06:32;12.10;99.90
69901;DHT22;57183;50.930;5.406;2023-03-31T17:08:58;12.20;99.90
69901;DHT22;57183;50.930;5.406;2023-03-31T17:11:23;12.20;99.90
69901;DHT22;57183;50.930;5.406;2023-03-31T17:13:50;12.20;99.90
69901;DHT22;57183;50.930;5.406;2023-03-31T17:16:17;12.30;99.90
69901;DHT22;57183;50.930;5.406;2023-03-31T17:18:43;12.30;99.90
69901;DHT22;57183;50.930;5.406;2023-03-31T17:21:10;12.20;99.90
69901;DHT22;57183;50.930;5.406;2023-03-31T17:23:37;12.20;99.90
69901;DHT22;57183;50.930;5.406;2023-03-31T17:26:04;12.20;99.90
69901;DHT22;57183;50.930;5.406;2023-03-31T17:28:31;12.10;99.90
69901;DHT22;57183;50.930;5.406;2023-03-31T17:30:57;12.10;99.90
69901;DHT22;57183;50.930;5.406;2023-03-31T17:33:24;12.00;99.90
69901;DHT22;57183;50.930;5.406;2023-03-31T17:35:53;11.90;99.90
69901;DHT22;57183;50.930;5.406;2023-03-31T17:38:19;11.80;99.90
69901;DHT22;57183;50.930;5.406;2023-03-31T17:40:47;11.70;99.90
69901;DHT22;57183;50.930;5.406;2023-03-31T17:43:13;11.80;99.90
69901;DHT22;57183;50.930;5.406;2023-03-31T17:45:39;11.80;99.90
69901;DHT22;57183;50.930;5.406;2023-03-31T17:48:05;11.80;99.90
69901;DHT22;57183;50.930;5.406;2023-03-31T17:50:31;11.80;99.90
69901;DHT22;57183;50.930;5.406;2023-03-31T17:52:57;11.80;99.90
69901;DHT22;57183;50.930;5.406;2023-03-31T17:55:23;11.80;99.90
69901;DHT22;57183;50.930;5.406;2023-03-31T17:57:49;11.80;99.90
69901;DHT22;57183;50.930;5.406;2023-03-31T18:00:15;11.70;99.90
69901;DHT22;57183;50.930;5.406;2023-03-31T18:02:42;11.80;99.90
69901;DHT22;57183;50.930;5.406;2023-03-31T18:05:08;11.70;99.90
69901;DHT22;57183;50.930;5.406;2023-03-31T18:07:35;11.70;99.90
69901;DHT22;57183;50.930;5.406;2023-03-31T18:10:02;11.70;99.90
69901;DHT22;57183;50.930;5.406;2023-03-31T18:12:31;11.70;99.90
69901;DHT22;57183;50.930;5.406;2023-03-31T18:14:57;11.60;99.90
69901;DHT22;57183;50.930;5.406;2023-03-31T18:17:22;11.60;99.90
69901;DHT22;57183;50.930;5.406;2023-03-31T18:19:48;11.50;99.90
69901;DHT22;57183;50.930;5.406;2023-03-31T18:22:14;11.50;99.90